createdAt,value
2022-11-12T00:04:19.478Z,7.90
2022-11-12T00:10:21.700Z,8.00
2022-11-12T00:16:23.387Z,8.10
2022-11-12T00:22:25.023Z,8.20
2022-11-12T00:28:26.996Z,8.20
2022-11-12T00:34:28.959Z,8.20
2022-11-12T00:40:30.626Z,8.00
2022-11-12T00:46:32.294Z,7.70
2022-11-12T00:52:34.008Z,7.20
2022-11-12T00:58:36.247Z,6.90
2022-11-12T01:04:37.869Z,7.20
2022-11-12T01:10:39.507Z,7.20
2022-11-12T01:16:42.899Z,7.10
2022-11-12T01:22:44.598Z,7.10
2022-11-12T01:28:46.485Z,7.30
2022-11-12T01:34:48.129Z,7.00
2022-11-12T01:40:49.783Z,7.10
2022-11-12T01:47:20.822Z,7.10
2022-11-12T01:53:26.001Z,7.00
2022-11-12T01:59:29.631Z,7.10
2022-11-12T02:05:31.670Z,7.00
2022-11-12T02:11:33.362Z,7.10
2022-11-12T02:17:35.102Z,7.00
2022-11-12T02:23:37.581Z,7.00
2022-11-12T02:29:46.285Z,7.20
2022-11-12T02:35:48.183Z,7.10
2022-11-12T02:41:49.932Z,6.90
2022-11-12T02:47:51.577Z,6.50
2022-11-12T02:53:53.418Z,6.50
2022-11-12T02:59:55.116Z,6.50
2022-11-12T03:05:58.091Z,6.40
2022-11-12T03:11:59.804Z,6.50
2022-11-12T03:18:01.504Z,6.50
2022-11-12T03:24:03.190Z,6.60
2022-11-12T03:30:05.117Z,6.60
2022-11-12T03:36:06.891Z,6.60
2022-11-12T03:42:08.913Z,6.50
2022-11-12T03:48:10.571Z,6.10
2022-11-12T03:54:12.513Z,5.90
2022-11-12T04:00:14.517Z,5.80
2022-11-12T04:06:34.664Z,6.00
2022-11-12T04:12:55.095Z,6.10
2022-11-12T04:19:16.196Z,6.10
2022-11-12T04:25:36.599Z,6.10
2022-11-12T04:31:38.244Z,5.90
2022-11-12T04:37:46.278Z,5.90
2022-11-12T04:44:06.366Z,5.90
2022-11-12T04:50:12.630Z,5.60
2022-11-12T04:56:14.290Z,5.50
2022-11-12T05:02:16.621Z,5.30
2022-11-12T05:08:18.283Z,5.60
2022-11-12T05:14:19.967Z,5.70
2022-11-12T05:20:21.564Z,5.80
2022-11-12T05:26:23.309Z,5.90
2022-11-12T05:32:25.084Z,6.00
2022-11-12T05:38:26.952Z,6.00
2022-11-12T05:44:28.821Z,5.70
2022-11-12T05:50:39.913Z,5.30
2022-11-12T05:56:53.407Z,5.20
2022-11-12T06:02:57.236Z,5.10
2022-11-12T06:08:59.061Z,5.00
2022-11-12T06:15:00.703Z,5.00
2022-11-12T06:21:22.940Z,5.30
2022-11-12T06:27:24.811Z,5.20
2022-11-12T06:33:26.690Z,5.10
2022-11-12T06:39:28.337Z,5.20
2022-11-12T06:45:30.127Z,5.50
2022-11-12T06:51:31.820Z,5.50
2022-11-12T06:57:33.473Z,5.30
2022-11-12T07:03:35.506Z,5.20
2022-11-12T07:09:37.189Z,5.10
2022-11-12T07:15:38.839Z,5.00
2022-11-12T07:21:40.455Z,5.30
2022-11-12T07:27:42.490Z,5.40
2022-11-12T07:33:44.996Z,5.60
2022-11-12T07:39:46.589Z,5.70
2022-11-12T07:45:48.277Z,5.70
2022-11-12T07:51:50.042Z,5.90
2022-11-12T07:57:53.541Z,5.80
2022-11-12T08:03:55.247Z,5.90
2022-11-12T08:09:56.976Z,6.10
2022-11-12T08:15:59.039Z,6.10
2022-11-12T08:22:00.728Z,5.90
2022-11-12T08:28:02.529Z,6.10
2022-11-12T08:34:12.358Z,6.00
2022-11-12T08:40:14.262Z,5.80
2022-11-12T08:46:15.952Z,5.90
2022-11-12T08:52:17.752Z,6.00
2022-11-12T08:58:19.465Z,6.20
2022-11-12T09:04:21.189Z,6.70
2022-11-12T09:10:23.014Z,6.90
2022-11-12T09:16:24.717Z,6.90
2022-11-12T09:22:26.335Z,6.90
2022-11-12T09:28:28.325Z,7.00
2022-11-12T09:34:30.221Z,7.00
2022-11-12T09:40:50.485Z,7.20
2022-11-12T09:46:57.547Z,7.20
2022-11-12T09:53:08.501Z,7.40
2022-11-12T09:59:13.569Z,7.60
2022-11-12T10:05:24.455Z,7.60
2022-11-12T10:11:57.696Z,7.80
2022-11-12T10:18:21.931Z,8.10
2022-11-12T10:24:24.731Z,8.10
2022-11-12T10:30:26.545Z,8.20
2022-11-12T10:36:30.366Z,8.60
2022-11-12T10:42:31.961Z,8.80
2022-11-12T10:48:34.714Z,8.90
2022-11-12T10:54:37.417Z,8.90
2022-11-12T11:00:52.465Z,8.90
2022-11-12T11:07:12.752Z,9.00
2022-11-12T11:13:17.282Z,9.00
2022-11-12T11:19:19.610Z,9.10
2022-11-12T11:25:27.674Z,9.20
2022-11-12T11:31:38.487Z,9.40
2022-11-12T11:38:03.184Z,9.40
2022-11-12T11:44:23.557Z,9.70
2022-11-12T11:50:27.352Z,9.90
2022-11-12T11:56:31.959Z,10.20
2022-11-12T12:02:49.354Z,10.60
2022-11-12T12:09:09.965Z,11.00
2022-11-12T12:15:11.568Z,10.90
2022-11-12T12:21:16.896Z,10.80
2022-11-12T12:27:21.381Z,10.80
2022-11-12T12:33:30.363Z,11.10
2022-11-12T12:39:48.571Z,11.40
2022-11-12T12:45:50.325Z,11.50
2022-11-12T12:51:55.812Z,11.50
2022-11-12T12:58:00.594Z,11.60
2022-11-12T13:04:08.595Z,11.50
2022-11-12T13:10:29.153Z,11.50
2022-11-12T13:17:06.454Z,11.40
2022-11-12T13:23:12.183Z,11.10
2022-11-12T13:29:19.545Z,11.00
2022-11-12T13:35:25.161Z,10.90
2022-11-12T13:41:46.254Z,10.80
2022-11-12T13:47:48.341Z,10.60
2022-11-12T13:53:50.176Z,10.50
2022-11-12T14:00:20.743Z,10.40
2022-11-12T14:06:45.859Z,10.40
2022-11-12T14:12:47.494Z,10.40
2022-11-12T14:18:52.246Z,10.30
2022-11-12T14:24:59.111Z,10.20
2022-11-12T14:31:01.932Z,10.10
2022-11-12T14:37:03.674Z,10.00
2022-11-12T14:43:06.034Z,9.90
2022-11-12T14:49:16.613Z,9.80
2022-11-12T14:55:20.408Z,9.60
2022-11-12T15:02:08.841Z,9.60
2022-11-12T15:07:56.896Z,9.50
2022-11-12T15:14:01.261Z,9.50
2022-11-12T15:20:12.621Z,9.50
2022-11-12T15:26:22.570Z,9.40
2022-11-12T15:32:24.252Z,9.30
2022-11-12T15:38:28.769Z,9.10
2022-11-12T15:44:32.106Z,8.90
2022-11-12T15:50:34.068Z,8.70
2022-11-12T15:56:35.710Z,8.60
2022-11-12T16:02:37.373Z,8.40
2022-11-12T16:08:39.011Z,8.50
2022-11-12T16:14:40.636Z,8.40
2022-11-12T16:20:42.348Z,8.50
2022-11-12T16:26:44.021Z,8.20
2022-11-12T16:32:46.984Z,8.00
2022-11-12T16:38:48.698Z,8.00
2022-11-12T16:44:50.476Z,8.00
2022-11-12T16:50:54.344Z,7.90
2022-11-12T16:56:57.010Z,8.00
2022-11-12T17:02:58.648Z,7.80
2022-11-12T17:09:00.322Z,7.70
2022-11-12T17:15:01.992Z,7.70
2022-11-12T17:21:18.203Z,7.60
2022-11-12T17:27:19.843Z,7.80
2022-11-12T17:33:21.485Z,7.70
2022-11-12T17:39:23.862Z,7.50
2022-11-12T17:45:25.599Z,7.50
2022-11-12T17:51:27.876Z,7.40
2022-11-12T17:57:29.533Z,7.60
2022-11-12T18:03:31.197Z,7.50
2022-11-12T18:09:32.902Z,7.50
2022-11-12T18:15:34.601Z,7.40
2022-11-12T18:21:36.820Z,7.10
2022-11-12T18:27:38.534Z,7.30
2022-11-12T18:33:40.284Z,7.20
2022-11-12T18:39:41.924Z,7.00
2022-11-12T18:45:43.572Z,7.10
2022-11-12T18:51:45.228Z,6.90
2022-11-12T18:57:46.840Z,7.00
2022-11-12T19:03:51.938Z,7.20
2022-11-12T19:09:53.726Z,7.00
2022-11-12T19:16:02.185Z,7.00
2022-11-12T19:22:04.026Z,7.00
2022-11-12T19:28:06.006Z,7.00
2022-11-12T19:34:08.187Z,7.00
2022-11-12T19:40:10.930Z,7.00
2022-11-12T19:46:13.610Z,7.00
2022-11-12T19:52:15.659Z,7.20
2022-11-12T19:58:17.381Z,7.10
2022-11-12T20:04:24.071Z,7.00
2022-11-12T20:10:26.074Z,7.00
2022-11-12T20:16:27.857Z,7.00
2022-11-12T20:22:32.105Z,7.00
2022-11-12T20:28:35.144Z,6.90
2022-11-12T20:34:36.803Z,6.90
2022-11-12T20:40:38.432Z,7.00
2022-11-12T20:46:40.391Z,6.70
2022-11-12T20:52:42.613Z,6.90
2022-11-12T20:58:44.579Z,6.80
2022-11-12T21:04:48.042Z,6.80
2022-11-12T21:10:49.980Z,6.80
2022-11-12T21:16:51.680Z,6.80
2022-11-12T21:22:53.327Z,6.80
2022-11-12T21:28:55.354Z,6.80
2022-11-12T21:34:56.990Z,6.70
2022-11-12T21:41:03.095Z,6.80
2022-11-12T21:47:04.791Z,6.70
2022-11-12T21:53:06.477Z,6.70
2022-11-12T21:59:08.118Z,6.70
2022-11-12T22:05:09.856Z,6.60
2022-11-12T22:11:12.907Z,6.60
2022-11-12T22:17:14.555Z,6.40
2022-11-12T22:23:16.176Z,6.60
2022-11-12T22:29:17.851Z,6.60
2022-11-12T22:35:19.494Z,6.60
2022-11-12T22:41:22.942Z,6.50
2022-11-12T22:47:24.568Z,6.60
2022-11-12T22:53:26.506Z,6.70
2022-11-12T22:59:28.095Z,6.60
2022-11-12T23:05:29.812Z,6.50
2022-11-12T23:11:31.794Z,6.50
2022-11-12T23:17:33.625Z,6.80
2022-11-12T23:23:35.981Z,6.70
2022-11-12T23:29:37.638Z,6.60
2022-11-12T23:35:39.252Z,6.50
2022-11-12T23:41:40.996Z,6.30
2022-11-12T23:47:42.649Z,6.40
2022-11-12T23:53:44.351Z,6.40
2022-11-12T23:59:46.035Z,6.30
